sensor_id;sensor_type;location;lat;lon;timestamp;P1;durP1;ratioP1;P2;durP2;ratioP2
63782;SDS011;49925;52.522;5.732;2023-06-22T00:00:15;32.08;;;18.45;;
63782;SDS011;49925;52.522;5.732;2023-06-22T00:02:43;30.40;;;17.75;;
63782;SDS011;49925;52.522;5.732;2023-06-22T00:05:10;31.25;;;17.55;;
63782;SDS011;49925;52.522;5.732;2023-06-22T00:07:37;30.88;;;16.73;;
63782;SDS011;49925;52.522;5.732;2023-06-22T00:10:04;33.75;;;16.33;;
63782;SDS011;49925;52.522;5.732;2023-06-22T00:12:32;30.48;;;17.55;;
63782;SDS011;49925;52.522;5.732;2023-06-22T00:14:59;31.10;;;16.83;;
63782;SDS011;49925;52.522;5.732;2023-06-22T00:17:26;36.50;;;19.00;;
63782;SDS011;49925;52.522;5.732;2023-06-22T00:19:54;33.35;;;18.42;;
63782;SDS011;49925;52.522;5.732;2023-06-22T00:22:21;33.22;;;18.23;;
63782;SDS011;49925;52.522;5.732;2023-06-22T00:24:55;35.00;;;18.60;;
63782;SDS011;49925;52.522;5.732;2023-06-22T00:27:23;32.28;;;16.88;;
63782;SDS011;49925;52.522;5.732;2023-06-22T00:29:50;31.05;;;16.67;;
63782;SDS011;49925;52.522;5.732;2023-06-22T00:32:18;32.95;;;17.98;;
63782;SDS011;49925;52.522;5.732;2023-06-22T00:34:45;33.08;;;18.90;;
63782;SDS011;49925;52.522;5.732;2023-06-22T00:37:12;35.08;;;18.90;;
63782;SDS011;49925;52.522;5.732;2023-06-22T00:39:40;36.90;;;19.75;;
63782;SDS011;49925;52.522;5.732;2023-06-22T00:42:07;31.83;;;18.10;;
63782;SDS011;49925;52.522;5.732;2023-06-22T00:44:35;36.50;;;19.88;;
63782;SDS011;49925;52.522;5.732;2023-06-22T00:47:03;35.67;;;20.30;;
63782;SDS011;49925;52.522;5.732;2023-06-22T00:49:30;36.47;;;19.27;;
63782;SDS011;49925;52.522;5.732;2023-06-22T00:51:57;32.55;;;18.83;;
63782;SDS011;49925;52.522;5.732;2023-06-22T00:54:24;30.13;;;18.60;;
63782;SDS011;49925;52.522;5.732;2023-06-22T00:56:53;34.92;;;19.55;;
63782;SDS011;49925;52.522;5.732;2023-06-22T00:59:23;34.95;;;18.65;;
63782;SDS011;49925;52.522;5.732;2023-06-22T01:01:50;29.02;;;18.73;;
63782;SDS011;49925;52.522;5.732;2023-06-22T01:04:18;34.53;;;19.45;;
63782;SDS011;49925;52.522;5.732;2023-06-22T01:06:49;30.90;;;18.83;;
63782;SDS011;49925;52.522;5.732;2023-06-22T01:09:22;39.72;;;19.08;;
63782;SDS011;49925;52.522;5.732;2023-06-22T01:12:00;28.48;;;17.58;;
63782;SDS011;49925;52.522;5.732;2023-06-22T01:14:34;32.67;;;19.13;;
63782;SDS011;49925;52.522;5.732;2023-06-22T01:17:12;30.63;;;18.25;;
63782;SDS011;49925;52.522;5.732;2023-06-22T01:19:49;28.83;;;18.45;;
63782;SDS011;49925;52.522;5.732;2023-06-22T01:22:28;32.03;;;19.80;;
63782;SDS011;49925;52.522;5.732;2023-06-22T01:25:09;31.85;;;18.80;;
63782;SDS011;49925;52.522;5.732;2023-06-22T01:30:28;29.05;;;19.08;;
63782;SDS011;49925;52.522;5.732;2023-06-22T01:32:57;32.65;;;19.27;;
63782;SDS011;49925;52.522;5.732;2023-06-22T01:35:25;29.60;;;18.70;;
63782;SDS011;49925;52.522;5.732;2023-06-22T01:37:52;30.88;;;18.40;;
63782;SDS011;49925;52.522;5.732;2023-06-22T01:40:20;34.00;;;18.45;;
63782;SDS011;49925;52.522;5.732;2023-06-22T01:42:48;28.58;;;16.92;;
63782;SDS011;49925;52.522;5.732;2023-06-22T01:45:15;35.53;;;18.58;;
63782;SDS011;49925;52.522;5.732;2023-06-22T01:47:43;28.10;;;18.08;;
63782;SDS011;49925;52.522;5.732;2023-06-22T01:50:10;27.30;;;18.30;;
63782;SDS011;49925;52.522;5.732;2023-06-22T01:52:40;33.58;;;19.05;;
63782;SDS011;49925;52.522;5.732;2023-06-22T01:55:08;26.40;;;17.10;;
63782;SDS011;49925;52.522;5.732;2023-06-22T01:57:35;32.30;;;17.67;;
63782;SDS011;49925;52.522;5.732;2023-06-22T02:00:03;31.02;;;17.20;;
63782;SDS011;49925;52.522;5.732;2023-06-22T02:02:39;26.55;;;16.67;;
63782;SDS011;49925;52.522;5.732;2023-06-22T02:05:31;28.70;;;17.80;;
63782;SDS011;49925;52.522;5.732;2023-06-22T02:08:06;28.98;;;18.25;;
63782;SDS011;49925;52.522;5.732;2023-06-22T02:10:44;28.35;;;17.15;;
63782;SDS011;49925;52.522;5.732;2023-06-22T02:13:12;28.42;;;18.23;;
63782;SDS011;49925;52.522;5.732;2023-06-22T02:15:39;29.20;;;17.55;;
63782;SDS011;49925;52.522;5.732;2023-06-22T02:18:08;31.17;;;18.05;;
63782;SDS011;49925;52.522;5.732;2023-06-22T02:20:39;35.45;;;19.85;;
63782;SDS011;49925;52.522;5.732;2023-06-22T02:23:06;34.80;;;19.08;;
63782;SDS011;49925;52.522;5.732;2023-06-22T02:25:34;33.95;;;18.08;;
63782;SDS011;49925;52.522;5.732;2023-06-22T02:28:02;37.85;;;21.58;;
63782;SDS011;49925;52.522;5.732;2023-06-22T02:30:30;29.63;;;18.50;;
63782;SDS011;49925;52.522;5.732;2023-06-22T02:32:58;31.58;;;18.73;;
63782;SDS011;49925;52.522;5.732;2023-06-22T02:35:26;39.00;;;20.13;;
63782;SDS011;49925;52.522;5.732;2023-06-22T02:37:58;33.22;;;20.08;;
63782;SDS011;49925;52.522;5.732;2023-06-22T02:40:27;29.48;;;18.98;;
63782;SDS011;49925;52.522;5.732;2023-06-22T02:42:58;31.10;;;19.80;;
63782;SDS011;49925;52.522;5.732;2023-06-22T02:45:28;36.38;;;19.40;;
63782;SDS011;49925;52.522;5.732;2023-06-22T02:47:56;32.88;;;19.95;;
63782;SDS011;49925;52.522;5.732;2023-06-22T02:50:23;36.38;;;20.73;;
63782;SDS011;49925;52.522;5.732;2023-06-22T02:52:51;34.97;;;21.08;;
63782;SDS011;49925;52.522;5.732;2023-06-22T02:55:18;35.78;;;20.42;;
63782;SDS011;49925;52.522;5.732;2023-06-22T02:57:45;39.28;;;22.02;;
63782;SDS011;49925;52.522;5.732;2023-06-22T03:00:14;36.33;;;21.67;;
63782;SDS011;49925;52.522;5.732;2023-06-22T03:02:44;41.63;;;22.48;;
63782;SDS011;49925;52.522;5.732;2023-06-22T03:05:12;37.60;;;21.90;;
63782;SDS011;49925;52.522;5.732;2023-06-22T03:07:49;39.67;;;23.20;;
63782;SDS011;49925;52.522;5.732;2023-06-22T03:10:16;35.38;;;21.10;;
63782;SDS011;49925;52.522;5.732;2023-06-22T03:12:44;42.42;;;23.75;;
63782;SDS011;49925;52.522;5.732;2023-06-22T03:15:12;42.03;;;24.02;;
63782;SDS011;49925;52.522;5.732;2023-06-22T03:17:39;42.80;;;23.85;;
63782;SDS011;49925;52.522;5.732;2023-06-22T03:20:08;36.97;;;23.20;;
63782;SDS011;49925;52.522;5.732;2023-06-22T03:22:41;36.38;;;23.27;;
63782;SDS011;49925;52.522;5.732;2023-06-22T03:25:09;35.50;;;22.92;;
63782;SDS011;49925;52.522;5.732;2023-06-22T03:27:37;38.00;;;22.65;;
63782;SDS011;49925;52.522;5.732;2023-06-22T03:30:05;38.15;;;23.48;;
63782;SDS011;49925;52.522;5.732;2023-06-22T03:32:34;42.97;;;24.95;;
63782;SDS011;49925;52.522;5.732;2023-06-22T03:35:01;42.25;;;25.95;;
63782;SDS011;49925;52.522;5.732;2023-06-22T03:37:29;45.17;;;25.85;;
63782;SDS011;49925;52.522;5.732;2023-06-22T03:39:56;41.92;;;26.05;;
63782;SDS011;49925;52.522;5.732;2023-06-22T03:42:23;51.25;;;27.13;;
63782;SDS011;49925;52.522;5.732;2023-06-22T03:44:50;41.22;;;25.02;;
63782;SDS011;49925;52.522;5.732;2023-06-22T04:19:02;47.53;;;27.20;;
63782;SDS011;49925;52.522;5.732;2023-06-22T04:21:29;46.67;;;27.58;;
63782;SDS011;49925;52.522;5.732;2023-06-22T04:23:56;50.20;;;30.73;;
63782;SDS011;49925;52.522;5.732;2023-06-22T04:26:23;48.42;;;28.02;;
63782;SDS011;49925;52.522;5.732;2023-06-22T04:28:51;49.13;;;28.05;;
63782;SDS011;49925;52.522;5.732;2023-06-22T04:31:22;47.97;;;28.80;;
63782;SDS011;49925;52.522;5.732;2023-06-22T04:33:53;50.70;;;28.88;;
63782;SDS011;49925;52.522;5.732;2023-06-22T04:36:21;43.92;;;27.23;;
63782;SDS011;49925;52.522;5.732;2023-06-22T04:38:51;55.53;;;30.23;;
63782;SDS011;49925;52.522;5.732;2023-06-22T04:41:18;51.38;;;29.85;;
63782;SDS011;49925;52.522;5.732;2023-06-22T04:43:50;52.80;;;29.42;;
63782;SDS011;49925;52.522;5.732;2023-06-22T04:49:00;52.78;;;29.95;;
63782;SDS011;49925;52.522;5.732;2023-06-22T04:51:27;55.90;;;29.95;;
63782;SDS011;49925;52.522;5.732;2023-06-22T04:53:57;52.55;;;31.27;;
63782;SDS011;49925;52.522;5.732;2023-06-22T04:56:27;47.10;;;28.52;;
63782;SDS011;49925;52.522;5.732;2023-06-22T04:58:55;53.28;;;29.35;;
63782;SDS011;49925;52.522;5.732;2023-06-22T05:01:23;50.22;;;29.58;;
63782;SDS011;49925;52.522;5.732;2023-06-22T05:03:51;48.55;;;28.80;;
63782;SDS011;49925;52.522;5.732;2023-06-22T05:06:22;53.20;;;31.10;;
63782;SDS011;49925;52.522;5.732;2023-06-22T05:08:54;53.42;;;30.75;;
63782;SDS011;49925;52.522;5.732;2023-06-22T05:11:27;53.40;;;31.55;;
63782;SDS011;49925;52.522;5.732;2023-06-22T05:13:55;54.28;;;31.13;;
63782;SDS011;49925;52.522;5.732;2023-06-22T05:16:22;54.60;;;30.65;;
63782;SDS011;49925;52.522;5.732;2023-06-22T05:18:54;49.58;;;29.42;;
63782;SDS011;49925;52.522;5.732;2023-06-22T05:21:22;50.20;;;30.67;;
63782;SDS011;49925;52.522;5.732;2023-06-22T05:23:51;48.65;;;30.33;;
63782;SDS011;49925;52.522;5.732;2023-06-22T05:26:22;52.75;;;30.20;;
63782;SDS011;49925;52.522;5.732;2023-06-22T05:28:50;54.15;;;31.08;;
63782;SDS011;49925;52.522;5.732;2023-06-22T05:31:17;52.85;;;30.75;;
63782;SDS011;49925;52.522;5.732;2023-06-22T05:33:46;47.67;;;29.10;;
63782;SDS011;49925;52.522;5.732;2023-06-22T05:36:16;49.67;;;30.67;;
63782;SDS011;49925;52.522;5.732;2023-06-22T05:38:46;55.35;;;31.80;;
63782;SDS011;49925;52.522;5.732;2023-06-22T05:41:14;56.22;;;31.50;;
63782;SDS011;49925;52.522;5.732;2023-06-22T05:43:41;62.28;;;32.75;;
63782;SDS011;49925;52.522;5.732;2023-06-22T05:46:08;59.50;;;32.22;;
63782;SDS011;49925;52.522;5.732;2023-06-22T05:48:35;57.15;;;33.03;;
63782;SDS011;49925;52.522;5.732;2023-06-22T05:51:03;58.50;;;31.88;;
63782;SDS011;49925;52.522;5.732;2023-06-22T05:53:30;58.40;;;32.40;;
63782;SDS011;49925;52.522;5.732;2023-06-22T05:55:57;55.15;;;31.63;;
63782;SDS011;49925;52.522;5.732;2023-06-22T05:58:24;59.95;;;32.05;;
63782;SDS011;49925;52.522;5.732;2023-06-22T06:00:51;65.30;;;32.70;;
63782;SDS011;49925;52.522;5.732;2023-06-22T06:03:19;55.08;;;31.88;;
63782;SDS011;49925;52.522;5.732;2023-06-22T06:05:46;51.17;;;30.15;;
63782;SDS011;49925;52.522;5.732;2023-06-22T06:08:14;56.92;;;32.58;;
63782;SDS011;49925;52.522;5.732;2023-06-22T06:10:41;48.65;;;30.40;;
63782;SDS011;49925;52.522;5.732;2023-06-22T06:13:08;57.53;;;31.42;;
63782;SDS011;49925;52.522;5.732;2023-06-22T06:15:35;57.65;;;31.02;;
63782;SDS011;49925;52.522;5.732;2023-06-22T06:18:03;51.30;;;29.73;;
63782;SDS011;49925;52.522;5.732;2023-06-22T06:20:32;51.63;;;29.20;;
63782;SDS011;49925;52.522;5.732;2023-06-22T06:22:59;54.30;;;30.63;;
63782;SDS011;49925;52.522;5.732;2023-06-22T06:25:27;50.20;;;29.80;;
63782;SDS011;49925;52.522;5.732;2023-06-22T06:27:54;51.88;;;28.95;;
63782;SDS011;49925;52.522;5.732;2023-06-22T06:30:21;49.67;;;28.25;;
63782;SDS011;49925;52.522;5.732;2023-06-22T06:32:49;49.30;;;27.25;;
63782;SDS011;49925;52.522;5.732;2023-06-22T06:35:17;46.92;;;26.08;;
63782;SDS011;49925;52.522;5.732;2023-06-22T06:37:46;43.45;;;24.73;;
63782;SDS011;49925;52.522;5.732;2023-06-22T06:40:15;39.90;;;24.85;;
63782;SDS011;49925;52.522;5.732;2023-06-22T06:42:45;46.08;;;25.27;;
63782;SDS011;49925;52.522;5.732;2023-06-22T06:45:21;50.22;;;25.05;;
63782;SDS011;49925;52.522;5.732;2023-06-22T06:47:50;47.17;;;23.77;;
63782;SDS011;49925;52.522;5.732;2023-06-22T06:50:19;42.58;;;23.67;;
63782;SDS011;49925;52.522;5.732;2023-06-22T06:52:46;37.83;;;22.23;;
63782;SDS011;49925;52.522;5.732;2023-06-22T06:55:14;38.42;;;23.55;;
63782;SDS011;49925;52.522;5.732;2023-06-22T06:57:41;42.67;;;21.40;;
63782;SDS011;49925;52.522;5.732;2023-06-22T07:00:10;33.75;;;20.52;;
63782;SDS011;49925;52.522;5.732;2023-06-22T07:02:41;43.33;;;22.17;;
63782;SDS011;49925;52.522;5.732;2023-06-22T07:05:10;39.35;;;22.70;;
63782;SDS011;49925;52.522;5.732;2023-06-22T07:07:39;37.20;;;19.30;;
63782;SDS011;49925;52.522;5.732;2023-06-22T07:10:08;36.25;;;17.85;;
63782;SDS011;49925;52.522;5.732;2023-06-22T07:12:36;29.98;;;17.65;;
63782;SDS011;49925;52.522;5.732;2023-06-22T07:15:04;30.85;;;16.67;;
63782;SDS011;49925;52.522;5.732;2023-06-22T07:17:37;29.67;;;17.35;;
63782;SDS011;49925;52.522;5.732;2023-06-22T07:20:07;31.38;;;17.35;;
63782;SDS011;49925;52.522;5.732;2023-06-22T07:22:42;33.30;;;18.80;;
63782;SDS011;49925;52.522;5.732;2023-06-22T07:25:11;39.23;;;19.03;;
63782;SDS011;49925;52.522;5.732;2023-06-22T07:27:45;31.35;;;17.35;;
63782;SDS011;49925;52.522;5.732;2023-06-22T07:30:27;31.92;;;16.20;;
63782;SDS011;49925;52.522;5.732;2023-06-22T07:32:56;35.45;;;16.45;;
63782;SDS011;49925;52.522;5.732;2023-06-22T07:35:24;29.08;;;15.75;;
63782;SDS011;49925;52.522;5.732;2023-06-22T07:37:51;37.30;;;15.80;;
63782;SDS011;49925;52.522;5.732;2023-06-22T07:40:18;26.52;;;16.38;;
63782;SDS011;49925;52.522;5.732;2023-06-22T07:42:46;31.92;;;16.10;;
63782;SDS011;49925;52.522;5.732;2023-06-22T07:45:18;30.10;;;16.83;;
63782;SDS011;49925;52.522;5.732;2023-06-22T07:47:45;29.20;;;15.77;;
63782;SDS011;49925;52.522;5.732;2023-06-22T07:50:12;24.88;;;15.38;;
63782;SDS011;49925;52.522;5.732;2023-06-22T07:52:40;25.00;;;14.45;;
63782;SDS011;49925;52.522;5.732;2023-06-22T07:55:07;23.83;;;14.75;;
63782;SDS011;49925;52.522;5.732;2023-06-22T07:57:34;21.45;;;14.18;;
63782;SDS011;49925;52.522;5.732;2023-06-22T08:00:03;25.90;;;15.90;;
63782;SDS011;49925;52.522;5.732;2023-06-22T08:02:42;27.67;;;14.73;;
63782;SDS011;49925;52.522;5.732;2023-06-22T08:05:13;31.02;;;15.20;;
63782;SDS011;49925;52.522;5.732;2023-06-22T08:07:44;28.67;;;14.10;;
63782;SDS011;49925;52.522;5.732;2023-06-22T08:10:14;28.75;;;15.02;;
63782;SDS011;49925;52.522;5.732;2023-06-22T08:12:41;22.35;;;14.07;;
63782;SDS011;49925;52.522;5.732;2023-06-22T08:15:09;25.83;;;15.15;;
63782;SDS011;49925;52.522;5.732;2023-06-22T08:17:37;27.00;;;15.52;;
63782;SDS011;49925;52.522;5.732;2023-06-22T08:20:06;23.42;;;14.15;;
63782;SDS011;49925;52.522;5.732;2023-06-22T08:22:40;25.05;;;13.30;;
63782;SDS011;49925;52.522;5.732;2023-06-22T08:25:09;29.70;;;14.35;;
63782;SDS011;49925;52.522;5.732;2023-06-22T08:27:37;27.77;;;13.32;;
63782;SDS011;49925;52.522;5.732;2023-06-22T08:30:04;27.30;;;16.13;;
63782;SDS011;49925;52.522;5.732;2023-06-22T08:32:34;24.88;;;13.93;;
63782;SDS011;49925;52.522;5.732;2023-06-22T08:35:01;24.10;;;15.02;;
63782;SDS011;49925;52.522;5.732;2023-06-22T08:37:28;27.88;;;15.50;;
63782;SDS011;49925;52.522;5.732;2023-06-22T08:40:03;21.65;;;14.32;;
63782;SDS011;49925;52.522;5.732;2023-06-22T08:42:36;21.40;;;13.25;;
63782;SDS011;49925;52.522;5.732;2023-06-22T08:45:04;23.13;;;12.90;;
63782;SDS011;49925;52.522;5.732;2023-06-22T08:47:32;22.70;;;12.93;;
63782;SDS011;49925;52.522;5.732;2023-06-22T08:49:59;24.27;;;12.68;;
63782;SDS011;49925;52.522;5.732;2023-06-22T08:52:29;22.98;;;12.50;;
63782;SDS011;49925;52.522;5.732;2023-06-22T08:54:57;21.55;;;12.60;;
63782;SDS011;49925;52.522;5.732;2023-06-22T08:57:27;24.65;;;12.75;;
63782;SDS011;49925;52.522;5.732;2023-06-22T08:59:55;21.83;;;13.40;;
63782;SDS011;49925;52.522;5.732;2023-06-22T09:02:25;26.52;;;13.45;;
63782;SDS011;49925;52.522;5.732;2023-06-22T09:04:57;20.35;;;13.45;;
63782;SDS011;49925;52.522;5.732;2023-06-22T09:07:25;28.30;;;12.50;;
63782;SDS011;49925;52.522;5.732;2023-06-22T09:09:53;24.67;;;11.68;;
63782;SDS011;49925;52.522;5.732;2023-06-22T09:12:20;22.13;;;13.18;;
63782;SDS011;49925;52.522;5.732;2023-06-22T09:14:52;18.42;;;11.73;;
63782;SDS011;49925;52.522;5.732;2023-06-22T09:17:22;21.10;;;12.23;;
63782;SDS011;49925;52.522;5.732;2023-06-22T09:19:49;21.58;;;11.85;;
63782;SDS011;49925;52.522;5.732;2023-06-22T09:22:17;28.38;;;13.43;;
63782;SDS011;49925;52.522;5.732;2023-06-22T09:24:44;26.65;;;11.77;;
63782;SDS011;49925;52.522;5.732;2023-06-22T09:27:11;21.50;;;13.70;;
63782;SDS011;49925;52.522;5.732;2023-06-22T09:29:39;23.98;;;12.82;;
63782;SDS011;49925;52.522;5.732;2023-06-22T09:32:06;29.67;;;12.27;;
63782;SDS011;49925;52.522;5.732;2023-06-22T09:34:34;23.58;;;13.55;;
63782;SDS011;49925;52.522;5.732;2023-06-22T09:37:01;20.42;;;12.90;;
63782;SDS011;49925;52.522;5.732;2023-06-22T09:39:28;20.02;;;11.55;;
63782;SDS011;49925;52.522;5.732;2023-06-22T09:41:57;20.33;;;10.15;;
63782;SDS011;49925;52.522;5.732;2023-06-22T09:44:26;20.52;;;10.60;;
63782;SDS011;49925;52.522;5.732;2023-06-22T09:46:53;20.98;;;11.65;;
63782;SDS011;49925;52.522;5.732;2023-06-22T09:49:20;24.88;;;13.93;;
63782;SDS011;49925;52.522;5.732;2023-06-22T09:52:08;21.75;;;13.13;;
63782;SDS011;49925;52.522;5.732;2023-06-22T09:54:35;23.55;;;12.43;;
63782;SDS011;49925;52.522;5.732;2023-06-22T09:57:02;23.50;;;13.05;;
63782;SDS011;49925;52.522;5.732;2023-06-22T09:59:29;20.60;;;12.55;;
63782;SDS011;49925;52.522;5.732;2023-06-22T10:01:56;24.38;;;12.43;;
63782;SDS011;49925;52.522;5.732;2023-06-22T10:04:24;22.13;;;12.82;;
63782;SDS011;49925;52.522;5.732;2023-06-22T10:06:52;21.15;;;12.25;;
63782;SDS011;49925;52.522;5.732;2023-06-22T10:09:19;19.70;;;11.25;;
63782;SDS011;49925;52.522;5.732;2023-06-22T10:11:47;18.25;;;11.15;;
63782;SDS011;49925;52.522;5.732;2023-06-22T10:14:14;19.13;;;11.20;;
63782;SDS011;49925;52.522;5.732;2023-06-22T10:16:43;18.42;;;10.48;;
63782;SDS011;49925;52.522;5.732;2023-06-22T10:19:10;20.77;;;11.88;;
63782;SDS011;49925;52.522;5.732;2023-06-22T10:21:37;18.13;;;10.38;;
63782;SDS011;49925;52.522;5.732;2023-06-22T10:24:04;16.77;;;9.75;;
63782;SDS011;49925;52.522;5.732;2023-06-22T10:26:35;19.15;;;10.82;;
63782;SDS011;49925;52.522;5.732;2023-06-22T10:29:03;19.05;;;11.18;;
63782;SDS011;49925;52.522;5.732;2023-06-22T10:31:42;20.23;;;11.20;;
63782;SDS011;49925;52.522;5.732;2023-06-22T10:34:09;26.05;;;10.48;;
63782;SDS011;49925;52.522;5.732;2023-06-22T10:36:36;20.75;;;9.40;;
63782;SDS011;49925;52.522;5.732;2023-06-22T10:39:03;20.73;;;10.13;;
63782;SDS011;49925;52.522;5.732;2023-06-22T10:41:31;21.23;;;9.82;;
63782;SDS011;49925;52.522;5.732;2023-06-22T10:43:58;24.45;;;10.63;;
63782;SDS011;49925;52.522;5.732;2023-06-22T10:46:25;18.95;;;11.00;;
63782;SDS011;49925;52.522;5.732;2023-06-22T10:48:53;17.00;;;9.50;;
63782;SDS011;49925;52.522;5.732;2023-06-22T10:51:23;17.75;;;10.05;;
63782;SDS011;49925;52.522;5.732;2023-06-22T10:53:51;17.05;;;10.18;;
63782;SDS011;49925;52.522;5.732;2023-06-22T10:56:19;19.05;;;9.05;;
63782;SDS011;49925;52.522;5.732;2023-06-22T10:58:46;18.17;;;8.60;;
63782;SDS011;49925;52.522;5.732;2023-06-22T11:01:14;15.05;;;8.23;;
63782;SDS011;49925;52.522;5.732;2023-06-22T11:03:59;16.92;;;8.02;;
63782;SDS011;49925;52.522;5.732;2023-06-22T11:06:26;12.70;;;7.00;;
63782;SDS011;49925;52.522;5.732;2023-06-22T11:08:53;18.15;;;7.97;;
63782;SDS011;49925;52.522;5.732;2023-06-22T11:11:31;15.38;;;8.55;;
63782;SDS011;49925;52.522;5.732;2023-06-22T11:13:59;18.00;;;8.55;;
63782;SDS011;49925;52.522;5.732;2023-06-22T11:16:26;12.82;;;8.30;;
63782;SDS011;49925;52.522;5.732;2023-06-22T11:18:54;14.52;;;7.70;;
63782;SDS011;49925;52.522;5.732;2023-06-22T11:21:21;14.25;;;7.85;;
63782;SDS011;49925;52.522;5.732;2023-06-22T11:23:48;30.75;;;7.82;;
63782;SDS011;49925;52.522;5.732;2023-06-22T11:26:16;10.93;;;6.75;;
63782;SDS011;49925;52.522;5.732;2023-06-22T11:28:44;12.93;;;6.90;;
63782;SDS011;49925;52.522;5.732;2023-06-22T11:31:11;18.23;;;7.00;;
63782;SDS011;49925;52.522;5.732;2023-06-22T11:33:41;12.68;;;7.10;;
63782;SDS011;49925;52.522;5.732;2023-06-22T11:36:08;16.65;;;6.20;;
63782;SDS011;49925;52.522;5.732;2023-06-22T11:38:37;12.45;;;6.53;;
63782;SDS011;49925;52.522;5.732;2023-06-22T11:41:05;13.25;;;5.80;;
63782;SDS011;49925;52.522;5.732;2023-06-22T11:43:33;11.32;;;6.18;;
63782;SDS011;49925;52.522;5.732;2023-06-22T11:46:01;12.93;;;6.47;;
63782;SDS011;49925;52.522;5.732;2023-06-22T11:48:29;10.30;;;6.75;;
63782;SDS011;49925;52.522;5.732;2023-06-22T11:50:57;10.40;;;5.93;;
63782;SDS011;49925;52.522;5.732;2023-06-22T11:53:26;13.05;;;6.03;;
63782;SDS011;49925;52.522;5.732;2023-06-22T11:55:54;11.57;;;6.38;;
63782;SDS011;49925;52.522;5.732;2023-06-22T11:58:21;15.75;;;7.55;;
63782;SDS011;49925;52.522;5.732;2023-06-22T12:00:49;13.93;;;7.43;;
63782;SDS011;49925;52.522;5.732;2023-06-22T12:03:18;28.65;;;7.50;;
63782;SDS011;49925;52.522;5.732;2023-06-22T12:05:46;13.63;;;6.85;;
63782;SDS011;49925;52.522;5.732;2023-06-22T12:08:14;13.10;;;7.13;;
63782;SDS011;49925;52.522;5.732;2023-06-22T12:10:41;11.73;;;7.35;;
63782;SDS011;49925;52.522;5.732;2023-06-22T12:13:08;15.20;;;7.28;;
63782;SDS011;49925;52.522;5.732;2023-06-22T12:15:35;12.98;;;6.82;;
63782;SDS011;49925;52.522;5.732;2023-06-22T12:18:03;15.48;;;6.82;;
63782;SDS011;49925;52.522;5.732;2023-06-22T12:20:30;13.75;;;6.68;;
63782;SDS011;49925;52.522;5.732;2023-06-22T12:22:58;11.85;;;7.15;;
63782;SDS011;49925;52.522;5.732;2023-06-22T12:25:25;12.63;;;6.57;;
63782;SDS011;49925;52.522;5.732;2023-06-22T12:27:52;21.52;;;6.95;;
63782;SDS011;49925;52.522;5.732;2023-06-22T12:30:20;14.57;;;6.63;;
63782;SDS011;49925;52.522;5.732;2023-06-22T12:32:47;11.10;;;6.50;;
63782;SDS011;49925;52.522;5.732;2023-06-22T12:35:15;21.48;;;7.28;;
63782;SDS011;49925;52.522;5.732;2023-06-22T12:37:43;11.80;;;6.60;;
63782;SDS011;49925;52.522;5.732;2023-06-22T12:40:10;11.57;;;6.88;;
63782;SDS011;49925;52.522;5.732;2023-06-22T12:42:40;17.97;;;7.13;;
63782;SDS011;49925;52.522;5.732;2023-06-22T12:45:08;13.70;;;7.30;;
63782;SDS011;49925;52.522;5.732;2023-06-22T12:47:36;15.23;;;7.53;;
63782;SDS011;49925;52.522;5.732;2023-06-22T12:50:04;18.77;;;8.25;;
63782;SDS011;49925;52.522;5.732;2023-06-22T12:52:31;11.57;;;8.15;;
63782;SDS011;49925;52.522;5.732;2023-06-22T12:54:59;14.50;;;8.45;;
63782;SDS011;49925;52.522;5.732;2023-06-22T12:57:26;12.05;;;8.00;;
63782;SDS011;49925;52.522;5.732;2023-06-22T12:59:53;13.45;;;8.63;;
63782;SDS011;49925;52.522;5.732;2023-06-22T13:02:20;16.40;;;8.48;;
63782;SDS011;49925;52.522;5.732;2023-06-22T13:04:48;18.75;;;9.05;;
63782;SDS011;49925;52.522;5.732;2023-06-22T13:07:15;15.85;;;9.02;;
63782;SDS011;49925;52.522;5.732;2023-06-22T13:09:49;18.60;;;9.73;;
63782;SDS011;49925;52.522;5.732;2023-06-22T13:12:20;15.13;;;8.88;;
63782;SDS011;49925;52.522;5.732;2023-06-22T13:14:48;19.50;;;9.10;;
63782;SDS011;49925;52.522;5.732;2023-06-22T13:17:15;17.20;;;9.40;;
63782;SDS011;49925;52.522;5.732;2023-06-22T13:19:42;14.23;;;8.90;;
63782;SDS011;49925;52.522;5.732;2023-06-22T13:24:57;16.10;;;9.63;;
63782;SDS011;49925;52.522;5.732;2023-06-22T13:27:25;15.82;;;9.27;;
63782;SDS011;49925;52.522;5.732;2023-06-22T13:29:53;17.88;;;8.80;;
63782;SDS011;49925;52.522;5.732;2023-06-22T13:32:20;17.42;;;9.57;;
63782;SDS011;49925;52.522;5.732;2023-06-22T13:34:47;15.38;;;9.60;;
63782;SDS011;49925;52.522;5.732;2023-06-22T13:37:15;21.80;;;9.48;;
63782;SDS011;49925;52.522;5.732;2023-06-22T13:39:42;20.35;;;8.70;;
63782;SDS011;49925;52.522;5.732;2023-06-22T13:42:09;16.95;;;9.65;;
63782;SDS011;49925;52.522;5.732;2023-06-22T13:44:36;13.68;;;9.00;;
63782;SDS011;49925;52.522;5.732;2023-06-22T13:47:03;14.27;;;9.38;;
63782;SDS011;49925;52.522;5.732;2023-06-22T13:49:31;16.20;;;9.77;;
63782;SDS011;49925;52.522;5.732;2023-06-22T13:51:58;20.58;;;10.32;;
63782;SDS011;49925;52.522;5.732;2023-06-22T13:54:26;20.63;;;10.43;;
63782;SDS011;49925;52.522;5.732;2023-06-22T13:56:56;14.73;;;9.90;;
63782;SDS011;49925;52.522;5.732;2023-06-22T13:59:23;20.17;;;10.35;;
63782;SDS011;49925;52.522;5.732;2023-06-22T14:01:53;18.83;;;10.55;;
63782;SDS011;49925;52.522;5.732;2023-06-22T14:04:21;20.92;;;11.75;;
63782;SDS011;49925;52.522;5.732;2023-06-22T14:06:51;16.98;;;11.05;;
63782;SDS011;49925;52.522;5.732;2023-06-22T14:09:22;19.42;;;11.30;;
63782;SDS011;49925;52.522;5.732;2023-06-22T14:11:49;18.75;;;11.88;;
63782;SDS011;49925;52.522;5.732;2023-06-22T14:14:16;20.50;;;11.77;;
63782;SDS011;49925;52.522;5.732;2023-06-22T14:16:44;22.48;;;11.98;;
63782;SDS011;49925;52.522;5.732;2023-06-22T14:19:11;24.13;;;12.00;;
63782;SDS011;49925;52.522;5.732;2023-06-22T14:21:38;24.67;;;13.43;;
63782;SDS011;49925;52.522;5.732;2023-06-22T14:24:05;24.30;;;14.60;;
63782;SDS011;49925;52.522;5.732;2023-06-22T14:26:32;20.00;;;13.00;;
63782;SDS011;49925;52.522;5.732;2023-06-22T14:29:00;23.83;;;13.52;;
63782;SDS011;49925;52.522;5.732;2023-06-22T14:31:27;28.77;;;14.85;;
63782;SDS011;49925;52.522;5.732;2023-06-22T14:33:54;24.83;;;13.45;;
63782;SDS011;49925;52.522;5.732;2023-06-22T14:36:21;34.03;;;14.57;;
63782;SDS011;49925;52.522;5.732;2023-06-22T14:38:48;27.55;;;14.30;;
63782;SDS011;49925;52.522;5.732;2023-06-22T14:41:16;24.27;;;12.77;;
63782;SDS011;49925;52.522;5.732;2023-06-22T14:43:48;24.38;;;13.27;;
63782;SDS011;49925;52.522;5.732;2023-06-22T14:48:46;21.85;;;13.10;;
63782;SDS011;49925;52.522;5.732;2023-06-22T14:51:14;22.40;;;13.20;;
63782;SDS011;49925;52.522;5.732;2023-06-22T14:53:44;24.90;;;13.27;;
63782;SDS011;49925;52.522;5.732;2023-06-22T14:56:12;23.52;;;13.75;;
63782;SDS011;49925;52.522;5.732;2023-06-22T14:58:42;31.90;;;14.73;;
63782;SDS011;49925;52.522;5.732;2023-06-22T15:03:43;32.72;;;14.60;;
63782;SDS011;49925;52.522;5.732;2023-06-22T15:06:10;25.73;;;14.38;;
63782;SDS011;49925;52.522;5.732;2023-06-22T15:08:38;21.98;;;14.05;;
63782;SDS011;49925;52.522;5.732;2023-06-22T15:11:06;28.50;;;16.45;;
63782;SDS011;49925;52.522;5.732;2023-06-22T15:13:34;24.80;;;15.48;;
63782;SDS011;49925;52.522;5.732;2023-06-22T15:16:02;26.98;;;15.63;;